Weather at Horizon Airport

Public forecast

Using degrees Fahrenheit for public forecast. Weather courtesy of forecast.io.

Closest aviation weather report (METAR) to Horizon Airport

Closest report is Stinson Municipal Airport, 3.6 nm (6.6 km) NNE.

2024/04/12 16:53 (retrieved 26 minutes ago)

KSSF 121653Z 14015KT 10SM CLR 24/08 A3025 RMK AO2 SLP257 T02390078

Closest aviation forecast (TAF) to Horizon Airport

Closest forecast is Stinson Municipal Airport, 3.6 nm (6.6 km) NNE.

2024/04/12 12:22 (retrieved 5 hours ago)

TAF KSSF 121120Z 1212/1312 VRB02KT P6SM FEW250 FM121500 14007KT P6SM SCT250 FM121800 14011G21KT P6SM SCT250 FM130100 14009KT P6SM BKN250